sensor_id;sensor_type;location;lat;lon;timestamp;pressure;altitude;pressure_sealevel;temperature;humidity
1926;BME280;964;42.606;23.588;2023-05-11T00:01:10;94758.44;;;22.98;33.64
1926;BME280;964;42.606;23.588;2023-05-11T00:03:37;94760.38;;;23.74;32.46
1926;BME280;964;42.606;23.588;2023-05-11T00:06:04;94756.31;;;24.87;31.28
1926;BME280;964;42.606;23.588;2023-05-11T00:08:30;94765.66;;;24.07;31.65
1926;BME280;964;42.606;23.588;2023-05-11T00:10:57;94769.16;;;23.01;33.53
1926;BME280;964;42.606;23.588;2023-05-11T00:13:25;94764.84;;;23.20;32.94
1926;BME280;964;42.606;23.588;2023-05-11T00:15:53;94759.91;;;23.47;32.64
1926;BME280;964;42.606;23.588;2023-05-11T00:18:20;94772.53;;;22.89;33.03
1926;BME280;964;42.606;23.588;2023-05-11T00:20:47;94775.31;;;23.18;32.96
1926;BME280;964;42.606;23.588;2023-05-11T00:23:13;94767.84;;;23.54;32.28
1926;BME280;964;42.606;23.588;2023-05-11T00:25:40;94764.03;;;22.90;33.34
1926;BME280;964;42.606;23.588;2023-05-11T00:28:07;94767.13;;;24.49;30.86
1926;BME280;964;42.606;23.588;2023-05-11T00:30:34;94777.66;;;24.06;31.16
1926;BME280;964;42.606;23.588;2023-05-11T00:33:02;94768.31;;;24.48;30.81
1926;BME280;964;42.606;23.588;2023-05-11T00:35:29;94771.81;;;24.61;30.45
1926;BME280;964;42.606;23.588;2023-05-11T00:37:57;94775.16;;;23.70;31.76
1926;BME280;964;42.606;23.588;2023-05-11T00:40:23;94774.03;;;23.55;31.40
1926;BME280;964;42.606;23.588;2023-05-11T00:42:50;94779.69;;;24.30;30.75
1926;BME280;964;42.606;23.588;2023-05-11T00:45:17;94782.88;;;23.71;31.28
1926;BME280;964;42.606;23.588;2023-05-11T00:47:44;94780.47;;;23.73;31.13
1926;BME280;964;42.606;23.588;2023-05-11T00:50:12;94779.63;;;23.76;31.64
1926;BME280;964;42.606;23.588;2023-05-11T00:52:40;94777.97;;;24.74;30.22
1926;BME280;964;42.606;23.588;2023-05-11T00:55:07;94759.13;;;25.43;29.05
1926;BME280;964;42.606;23.588;2023-05-11T00:57:34;94769.75;;;24.65;30.04
1926;BME280;964;42.606;23.588;2023-05-11T01:00:03;94773.47;;;23.31;31.51
1926;BME280;964;42.606;23.588;2023-05-11T01:02:30;94767.81;;;24.12;30.92
1926;BME280;964;42.606;23.588;2023-05-11T01:04:58;94769.31;;;24.92;29.90
1926;BME280;964;42.606;23.588;2023-05-11T01:07:31;94772.78;;;24.01;31.29
1926;BME280;964;42.606;23.588;2023-05-11T01:10:06;94774.84;;;24.09;31.30
1926;BME280;964;42.606;23.588;2023-05-11T01:12:39;94779.47;;;24.37;30.75
1926;BME280;964;42.606;23.588;2023-05-11T01:15:11;94773.19;;;24.28;30.80
1926;BME280;964;42.606;23.588;2023-05-11T01:17:43;94773.34;;;23.79;31.57
1926;BME280;964;42.606;23.588;2023-05-11T01:20:14;94771.13;;;23.90;31.26
1926;BME280;964;42.606;23.588;2023-05-11T01:22:51;94782.25;;;23.03;32.64
1926;BME280;964;42.606;23.588;2023-05-11T01:25:33;94779.84;;;24.11;31.41
1926;BME280;964;42.606;23.588;2023-05-11T01:28:19;94776.88;;;23.64;31.53
1926;BME280;964;42.606;23.588;2023-05-11T01:30:50;94782.41;;;24.02;31.39
1926;BME280;964;42.606;23.588;2023-05-11T01:33:25;94778.53;;;24.69;30.29
1926;BME280;964;42.606;23.588;2023-05-11T01:36:01;94782.41;;;23.44;32.13
1926;BME280;964;42.606;23.588;2023-05-11T01:38:33;94773.91;;;24.16;31.56
1926;BME280;964;42.606;23.588;2023-05-11T01:41:08;94777.44;;;24.00;31.38
1926;BME280;964;42.606;23.588;2023-05-11T01:43:36;94780.47;;;23.12;33.10
1926;BME280;964;42.606;23.588;2023-05-11T01:46:08;94776.13;;;23.63;32.45
1926;BME280;964;42.606;23.588;2023-05-11T01:48:38;94786.91;;;23.02;33.24
1926;BME280;964;42.606;23.588;2023-05-11T01:51:06;94785.03;;;23.31;32.20
1926;BME280;964;42.606;23.588;2023-05-11T01:53:36;94785.44;;;22.81;33.05
1926;BME280;964;42.606;23.588;2023-05-11T01:56:04;94777.38;;;23.87;32.23
1926;BME280;964;42.606;23.588;2023-05-11T01:58:31;94781.94;;;23.17;32.78
1926;BME280;964;42.606;23.588;2023-05-11T02:01:00;94785.22;;;22.40;34.12
1926;BME280;964;42.606;23.588;2023-05-11T02:03:30;94782.31;;;23.48;32.46
1926;BME280;964;42.606;23.588;2023-05-11T02:05:59;94787.72;;;22.99;33.81
1926;BME280;964;42.606;23.588;2023-05-11T02:08:28;94786.06;;;21.97;35.03
1926;BME280;964;42.606;23.588;2023-05-11T02:10:57;94788.28;;;23.39;33.20
1926;BME280;964;42.606;23.588;2023-05-11T02:13:25;94790.69;;;23.37;33.07
1926;BME280;964;42.606;23.588;2023-05-11T02:15:55;94785.66;;;24.38;31.53
1926;BME280;964;42.606;23.588;2023-05-11T02:18:23;94778.56;;;23.86;31.84
1926;BME280;964;42.606;23.588;2023-05-11T02:20:52;94774.84;;;24.63;31.32
1926;BME280;964;42.606;23.588;2023-05-11T02:23:19;94783.09;;;23.48;32.68
1926;BME280;964;42.606;23.588;2023-05-11T02:25:48;94773.06;;;24.19;31.71
1926;BME280;964;42.606;23.588;2023-05-11T02:28:17;94774.75;;;24.13;32.03
1926;BME280;964;42.606;23.588;2023-05-11T02:30:45;94777.66;;;24.06;32.00
1926;BME280;964;42.606;23.588;2023-05-11T02:33:17;94778.44;;;23.49;32.33
1926;BME280;964;42.606;23.588;2023-05-11T02:35:46;94769.28;;;24.29;31.49
1926;BME280;964;42.606;23.588;2023-05-11T02:38:14;94774.28;;;23.44;32.84
1926;BME280;964;42.606;23.588;2023-05-11T02:40:46;94779.50;;;24.09;32.02
1926;BME280;964;42.606;23.588;2023-05-11T02:43:19;94770.31;;;23.77;32.49
1926;BME280;964;42.606;23.588;2023-05-11T02:49:09;94773.94;;;23.58;32.49
1926;BME280;964;42.606;23.588;2023-05-11T02:51:40;94781.91;;;23.49;32.48
1926;BME280;964;42.606;23.588;2023-05-11T02:54:11;94779.72;;;23.73;32.19
1926;BME280;964;42.606;23.588;2023-05-11T02:56:40;94773.88;;;24.70;31.38
1926;BME280;964;42.606;23.588;2023-05-11T02:59:07;94780.22;;;23.23;32.77
1926;BME280;964;42.606;23.588;2023-05-11T03:01:34;94775.50;;;23.11;33.47
1926;BME280;964;42.606;23.588;2023-05-11T03:04:03;94770.03;;;23.59;32.72
1926;BME280;964;42.606;23.588;2023-05-11T03:06:30;94774.00;;;24.12;32.14
1926;BME280;964;42.606;23.588;2023-05-11T03:08:57;94773.31;;;23.96;32.48
1926;BME280;964;42.606;23.588;2023-05-11T03:11:25;94766.34;;;23.82;32.59
1926;BME280;964;42.606;23.588;2023-05-11T03:13:53;94775.66;;;23.81;32.47
1926;BME280;964;42.606;23.588;2023-05-11T03:16:19;94775.50;;;22.94;33.63
1926;BME280;964;42.606;23.588;2023-05-11T03:18:47;94767.84;;;23.54;32.98
1926;BME280;964;42.606;23.588;2023-05-11T03:21:15;94767.28;;;23.47;33.43
1926;BME280;964;42.606;23.588;2023-05-11T03:23:45;94775.06;;;23.44;33.59
1926;BME280;964;42.606;23.588;2023-05-11T03:26:14;94770.44;;;22.80;34.27
1926;BME280;964;42.606;23.588;2023-05-11T03:28:45;94766.91;;;24.18;32.37
1926;BME280;964;42.606;23.588;2023-05-11T03:31:12;94774.38;;;23.40;33.05
1926;BME280;964;42.606;23.588;2023-05-11T03:33:38;94782.34;;;22.47;34.49
1926;BME280;964;42.606;23.588;2023-05-11T03:36:08;94779.16;;;23.65;33.19
1926;BME280;964;42.606;23.588;2023-05-11T03:38:36;94775.63;;;23.36;33.50
1926;BME280;964;42.606;23.588;2023-05-11T03:41:03;94778.50;;;24.19;32.17
1926;BME280;964;42.606;23.588;2023-05-11T03:43:31;94783.16;;;23.89;33.05
1926;BME280;964;42.606;23.588;2023-05-11T03:46:01;94788.06;;;24.61;32.34
1926;BME280;964;42.606;23.588;2023-05-11T03:48:29;94778.19;;;23.72;33.03
1926;BME280;964;42.606;23.588;2023-05-11T03:50:56;94788.41;;;23.03;34.32
1926;BME280;964;42.606;23.588;2023-05-11T03:53:24;94783.16;;;23.89;33.17
1926;BME280;964;42.606;23.588;2023-05-11T03:55:51;94789.47;;;24.12;32.64
1926;BME280;964;42.606;23.588;2023-05-11T03:58:19;94791.03;;;22.90;34.25
1926;BME280;964;42.606;23.588;2023-05-11T04:00:45;94792.91;;;24.00;32.83
1926;BME280;964;42.606;23.588;2023-05-11T04:03:13;94791.13;;;23.80;33.59
1926;BME280;964;42.606;23.588;2023-05-11T04:05:40;94798.81;;;22.17;35.84
1926;BME280;964;42.606;23.588;2023-05-11T04:08:08;94797.88;;;22.59;34.87
1926;BME280;964;42.606;23.588;2023-05-11T04:10:36;94791.31;;;23.73;33.69
1926;BME280;964;42.606;23.588;2023-05-11T04:13:03;94797.22;;;22.91;34.92
1926;BME280;964;42.606;23.588;2023-05-11T04:15:30;94795.25;;;23.08;35.13
1926;BME280;964;42.606;23.588;2023-05-11T04:17:56;94792.22;;;23.38;34.52
1926;BME280;964;42.606;23.588;2023-05-11T04:20:25;94802.88;;;23.45;34.63
1926;BME280;964;42.606;23.588;2023-05-11T04:22:52;94806.16;;;22.52;35.63
1926;BME280;964;42.606;23.588;2023-05-11T04:25:19;94810.44;;;22.85;35.28
1926;BME280;964;42.606;23.588;2023-05-11T04:27:45;94804.63;;;22.87;34.55
1926;BME280;964;42.606;23.588;2023-05-11T04:30:12;94807.94;;;23.27;34.44
1926;BME280;964;42.606;23.588;2023-05-11T04:32:39;94807.59;;;22.76;34.96
1926;BME280;964;42.606;23.588;2023-05-11T04:35:06;94798.91;;;23.78;33.46
1926;BME280;964;42.606;23.588;2023-05-11T04:37:34;94804.81;;;23.89;33.54
1926;BME280;964;42.606;23.588;2023-05-11T04:40:01;94818.97;;;22.68;34.54
1926;BME280;964;42.606;23.588;2023-05-11T04:42:29;94814.19;;;23.24;34.00
1926;BME280;964;42.606;23.588;2023-05-11T04:44:55;94821.84;;;22.77;34.77
1926;BME280;964;42.606;23.588;2023-05-11T04:47:22;94820.19;;;22.63;35.33
1926;BME280;964;42.606;23.588;2023-05-11T04:49:49;94816.38;;;23.13;34.69
1926;BME280;964;42.606;23.588;2023-05-11T04:52:16;94812.22;;;22.00;36.34
1926;BME280;964;42.606;23.588;2023-05-11T04:54:44;94819.94;;;22.38;36.57
1926;BME280;964;42.606;23.588;2023-05-11T04:57:10;94816.72;;;23.31;34.85
1926;BME280;964;42.606;23.588;2023-05-11T04:59:37;94824.66;;;22.34;35.87
1926;BME280;964;42.606;23.588;2023-05-11T05:02:04;94821.00;;;22.80;34.66
1926;BME280;964;42.606;23.588;2023-05-11T05:04:30;94820.75;;;23.39;34.45
1926;BME280;964;42.606;23.588;2023-05-11T05:06:57;94818.75;;;23.27;34.71
1926;BME280;964;42.606;23.588;2023-05-11T05:09:24;94818.81;;;24.42;32.66
1926;BME280;964;42.606;23.588;2023-05-11T05:11:52;94816.25;;;24.76;32.36
1926;BME280;964;42.606;23.588;2023-05-11T05:14:19;94822.13;;;24.62;32.29
1926;BME280;964;42.606;23.588;2023-05-11T05:16:45;94824.84;;;23.31;34.23
1926;BME280;964;42.606;23.588;2023-05-11T05:19:12;94827.81;;;24.39;32.72
1926;BME280;964;42.606;23.588;2023-05-11T05:21:39;94821.41;;;23.75;33.04
1926;BME280;964;42.606;23.588;2023-05-11T05:24:06;94832.38;;;22.52;35.26
1926;BME280;964;42.606;23.588;2023-05-11T05:26:35;94838.41;;;21.80;36.82
1926;BME280;964;42.606;23.588;2023-05-11T05:29:04;94835.75;;;22.20;36.01
1926;BME280;964;42.606;23.588;2023-05-11T05:31:31;94836.47;;;22.79;35.29
1926;BME280;964;42.606;23.588;2023-05-11T05:33:58;94827.81;;;23.53;34.06
1926;BME280;964;42.606;23.588;2023-05-11T05:36:25;94835.16;;;22.48;35.37
1926;BME280;964;42.606;23.588;2023-05-11T05:38:52;94845.16;;;22.51;35.80
1926;BME280;964;42.606;23.588;2023-05-11T05:41:19;94840.47;;;22.16;36.27
1926;BME280;964;42.606;23.588;2023-05-11T05:43:45;94835.75;;;22.39;35.26
1926;BME280;964;42.606;23.588;2023-05-11T05:46:14;94838.25;;;22.11;36.58
1926;BME280;964;42.606;23.588;2023-05-11T05:48:40;94832.16;;;22.82;35.07
1926;BME280;964;42.606;23.588;2023-05-11T05:51:07;94838.53;;;22.36;35.52
1926;BME280;964;42.606;23.588;2023-05-11T05:53:34;94834.88;;;23.30;34.74
1926;BME280;964;42.606;23.588;2023-05-11T05:56:01;94835.47;;;23.38;33.60
1926;BME280;964;42.606;23.588;2023-05-11T05:58:28;94843.41;;;22.96;34.49
1926;BME280;964;42.606;23.588;2023-05-11T06:00:55;94847.06;;;22.70;35.44
1926;BME280;964;42.606;23.588;2023-05-11T06:03:23;94843.00;;;24.49;32.62
1926;BME280;964;42.606;23.588;2023-05-11T06:05:49;94843.03;;;24.20;33.23
1926;BME280;964;42.606;23.588;2023-05-11T06:08:16;94845.03;;;24.45;32.46
1926;BME280;964;42.606;23.588;2023-05-11T06:10:42;94852.53;;;23.03;34.25
1926;BME280;964;42.606;23.588;2023-05-11T06:13:09;94847.69;;;24.20;33.28
1926;BME280;964;42.606;23.588;2023-05-11T06:15:36;94850.34;;;24.49;32.55
1926;BME280;964;42.606;23.588;2023-05-11T06:18:03;94851.03;;;23.95;32.82
1926;BME280;964;42.606;23.588;2023-05-11T06:20:31;94853.88;;;23.75;33.03
1926;BME280;964;42.606;23.588;2023-05-11T06:22:58;94856.53;;;23.30;33.85
1926;BME280;964;42.606;23.588;2023-05-11T06:25:25;94868.44;;;23.17;34.04
1926;BME280;964;42.606;23.588;2023-05-11T06:27:52;94851.03;;;23.34;33.13
1926;BME280;964;42.606;23.588;2023-05-11T06:30:18;94854.41;;;23.22;33.23
1926;BME280;964;42.606;23.588;2023-05-11T06:32:45;94852.22;;;24.64;31.61
1926;BME280;964;42.606;23.588;2023-05-11T06:35:12;94861.03;;;22.85;33.48
1926;BME280;964;42.606;23.588;2023-05-11T06:37:40;94851.50;;;24.76;31.78
1926;BME280;964;42.606;23.588;2023-05-11T06:40:08;94853.06;;;24.49;31.91
1926;BME280;964;42.606;23.588;2023-05-11T06:42:35;94859.59;;;24.51;32.34
1926;BME280;964;42.606;23.588;2023-05-11T06:45:01;94855.50;;;24.72;31.74
1926;BME280;964;42.606;23.588;2023-05-11T06:47:28;94854.41;;;24.69;31.63
1926;BME280;964;42.606;23.588;2023-05-11T06:49:55;94867.56;;;23.84;32.37
1926;BME280;964;42.606;23.588;2023-05-11T06:52:22;94865.31;;;24.53;31.32
1926;BME280;964;42.606;23.588;2023-05-11T06:54:50;94853.38;;;25.05;31.09
1926;BME280;964;42.606;23.588;2023-05-11T06:57:17;94851.94;;;26.63;29.24
1926;BME280;964;42.606;23.588;2023-05-11T06:59:44;94864.09;;;24.13;31.47
1926;BME280;964;42.606;23.588;2023-05-11T07:02:10;94855.72;;;25.41;30.15
1926;BME280;964;42.606;23.588;2023-05-11T07:04:37;94842.56;;;25.99;30.00
1926;BME280;964;42.606;23.588;2023-05-11T07:07:04;94855.75;;;23.62;32.49
1926;BME280;964;42.606;23.588;2023-05-11T07:09:30;94864.75;;;25.00;30.89
1926;BME280;964;42.606;23.588;2023-05-11T07:11:58;94863.03;;;24.39;31.65
1926;BME280;964;42.606;23.588;2023-05-11T07:14:25;94853.69;;;24.94;31.19
1926;BME280;964;42.606;23.588;2023-05-11T07:16:52;94859.47;;;23.36;33.06
1926;BME280;964;42.606;23.588;2023-05-11T07:19:18;94855.00;;;24.89;31.39
1926;BME280;964;42.606;23.588;2023-05-11T07:21:45;94860.88;;;25.13;30.87
1926;BME280;964;42.606;23.588;2023-05-11T07:24:12;94869.19;;;24.11;32.53
1926;BME280;964;42.606;23.588;2023-05-11T07:26:38;94872.13;;;24.45;31.95
1926;BME280;964;42.606;23.588;2023-05-11T07:29:06;94869.53;;;24.96;31.41
1926;BME280;964;42.606;23.588;2023-05-11T07:31:33;94869.38;;;24.04;32.06
1926;BME280;964;42.606;23.588;2023-05-11T07:34:00;94868.50;;;24.64;32.02
1926;BME280;964;42.606;23.588;2023-05-11T07:36:27;94863.56;;;25.01;30.72
1926;BME280;964;42.606;23.588;2023-05-11T07:38:54;94854.91;;;25.06;30.84
1926;BME280;964;42.606;23.588;2023-05-11T07:41:22;94861.03;;;26.04;29.76
1926;BME280;964;42.606;23.588;2023-05-11T07:43:51;94863.13;;;25.15;30.47
1926;BME280;964;42.606;23.588;2023-05-11T07:46:19;94878.75;;;24.98;31.80
1926;BME280;964;42.606;23.588;2023-05-11T07:48:45;94874.81;;;24.04;32.44
1926;BME280;964;42.606;23.588;2023-05-11T07:51:12;94866.66;;;23.59;32.76
1926;BME280;964;42.606;23.588;2023-05-11T07:53:39;94877.84;;;24.06;32.50
1926;BME280;964;42.606;23.588;2023-05-11T07:56:06;94867.84;;;25.61;30.57
1926;BME280;964;42.606;23.588;2023-05-11T07:58:34;94881.47;;;23.70;33.05
1926;BME280;964;42.606;23.588;2023-05-11T08:01:00;94869.91;;;24.15;32.69
1926;BME280;964;42.606;23.588;2023-05-11T08:03:28;94886.81;;;24.19;32.62
1926;BME280;964;42.606;23.588;2023-05-11T08:05:55;94875.72;;;24.83;31.57
1926;BME280;964;42.606;23.588;2023-05-11T08:08:23;94874.56;;;24.68;32.09
1926;BME280;964;42.606;23.588;2023-05-11T08:10:50;94870.19;;;25.84;30.13
1926;BME280;964;42.606;23.588;2023-05-11T08:13:17;94887.25;;;24.59;32.07
1926;BME280;964;42.606;23.588;2023-05-11T08:15:43;94880.78;;;24.11;32.33
1926;BME280;964;42.606;23.588;2023-05-11T08:18:10;94867.63;;;25.68;30.58
1926;BME280;964;42.606;23.588;2023-05-11T08:20:38;94880.06;;;24.94;31.49
1926;BME280;964;42.606;23.588;2023-05-11T08:23:06;94880.88;;;25.66;30.56
1926;BME280;964;42.606;23.588;2023-05-11T08:25:33;94885.66;;;25.62;31.35
1926;BME280;964;42.606;23.588;2023-05-11T08:28:00;94880.91;;;25.41;30.55
1926;BME280;964;42.606;23.588;2023-05-11T08:30:27;94886.44;;;25.00;31.39
1926;BME280;964;42.606;23.588;2023-05-11T08:32:53;94884.53;;;24.71;31.69
1926;BME280;964;42.606;23.588;2023-05-11T08:35:20;94882.44;;;25.17;31.28
1926;BME280;964;42.606;23.588;2023-05-11T08:37:49;94890.78;;;24.97;31.90
1926;BME280;964;42.606;23.588;2023-05-11T08:40:16;94884.72;;;25.06;31.75
1926;BME280;964;42.606;23.588;2023-05-11T08:42:45;94883.63;;;25.16;31.81
1926;BME280;964;42.606;23.588;2023-05-11T08:45:12;94864.31;;;26.86;29.58
1926;BME280;964;42.606;23.588;2023-05-11T08:47:39;94873.94;;;26.34;29.69
1926;BME280;964;42.606;23.588;2023-05-11T08:50:07;94888.19;;;25.31;31.12
1926;BME280;964;42.606;23.588;2023-05-11T08:52:34;94884.19;;;25.96;30.46
1926;BME280;964;42.606;23.588;2023-05-11T08:55:02;94896.66;;;23.97;32.46
1926;BME280;964;42.606;23.588;2023-05-11T08:57:30;94877.34;;;24.52;32.24
1926;BME280;964;42.606;23.588;2023-05-11T08:59:57;94879.88;;;24.72;31.85
1926;BME280;964;42.606;23.588;2023-05-11T09:02:27;94873.44;;;25.20;31.26
1926;BME280;964;42.606;23.588;2023-05-11T09:04:54;94871.16;;;26.25;30.16
1926;BME280;964;42.606;23.588;2023-05-11T09:07:23;94871.41;;;26.61;30.32
1926;BME280;964;42.606;23.588;2023-05-11T09:09:52;94862.31;;;26.33;29.72
1926;BME280;964;42.606;23.588;2023-05-11T09:12:20;94857.84;;;26.70;29.18
1926;BME280;964;42.606;23.588;2023-05-11T09:14:50;94865.91;;;25.49;30.01
1926;BME280;964;42.606;23.588;2023-05-11T09:17:17;94849.69;;;27.41;28.30
1926;BME280;964;42.606;23.588;2023-05-11T09:19:59;94863.09;;;25.40;30.78
1926;BME280;964;42.606;23.588;2023-05-11T09:22:26;94871.34;;;24.32;32.16
1926;BME280;964;42.606;23.588;2023-05-11T09:24:53;94843.09;;;27.51;28.54
1926;BME280;964;42.606;23.588;2023-05-11T09:27:23;94840.66;;;26.73;28.68
1926;BME280;964;42.606;23.588;2023-05-11T09:29:51;94833.81;;;26.91;28.69
1926;BME280;964;42.606;23.588;2023-05-11T09:32:18;94832.38;;;27.84;28.20
1926;BME280;964;42.606;23.588;2023-05-11T09:34:45;94821.94;;;28.28;26.85
1926;BME280;964;42.606;23.588;2023-05-11T09:37:15;94829.66;;;28.02;26.89
1926;BME280;964;42.606;23.588;2023-05-11T09:39:42;94826.97;;;28.90;27.05
1926;BME280;964;42.606;23.588;2023-05-11T09:42:13;94834.06;;;27.82;27.36
1926;BME280;964;42.606;23.588;2023-05-11T09:44:43;94838.81;;;27.41;27.97
1926;BME280;964;42.606;23.588;2023-05-11T09:47:11;94837.22;;;27.13;28.81
1926;BME280;964;42.606;23.588;2023-05-11T09:49:39;94825.84;;;28.63;27.19
1926;BME280;964;42.606;23.588;2023-05-11T09:52:10;94849.59;;;25.74;29.71
1926;BME280;964;42.606;23.588;2023-05-11T09:54:42;94843.78;;;25.63;29.48
1926;BME280;964;42.606;23.588;2023-05-11T09:57:23;94852.47;;;25.58;30.04
1926;BME280;964;42.606;23.588;2023-05-11T09:59:52;94837.34;;;25.70;29.85
1926;BME280;964;42.606;23.588;2023-05-11T10:02:21;94830.16;;;26.32;29.31
1926;BME280;964;42.606;23.588;2023-05-11T10:04:48;94827.34;;;26.66;29.12
1926;BME280;964;42.606;23.588;2023-05-11T10:07:25;94814.00;;;26.16;29.67
1926;BME280;964;42.606;23.588;2023-05-11T10:09:53;94820.09;;;26.20;29.91
1926;BME280;964;42.606;23.588;2023-05-11T10:12:21;94823.63;;;26.08;30.40
1926;BME280;964;42.606;23.588;2023-05-11T10:14:55;94823.41;;;26.37;29.78
1926;BME280;964;42.606;23.588;2023-05-11T10:17:24;94799.53;;;27.69;28.63
1926;BME280;964;42.606;23.588;2023-05-11T10:19:53;94805.91;;;27.66;28.15
1926;BME280;964;42.606;23.588;2023-05-11T10:22:21;94813.88;;;25.98;29.53
1926;BME280;964;42.606;23.588;2023-05-11T10:24:49;94806.53;;;26.20;29.29
1926;BME280;964;42.606;23.588;2023-05-11T10:27:16;94795.47;;;28.10;27.93
1926;BME280;964;42.606;23.588;2023-05-11T10:29:44;94807.22;;;26.33;28.81
1926;BME280;964;42.606;23.588;2023-05-11T10:32:20;94793.22;;;26.74;28.74
1926;BME280;964;42.606;23.588;2023-05-11T10:34:47;94787.16;;;27.87;28.01
1926;BME280;964;42.606;23.588;2023-05-11T10:37:15;94792.16;;;27.12;28.29
1926;BME280;964;42.606;23.588;2023-05-11T10:39:43;94785.78;;;28.09;27.57
1926;BME280;964;42.606;23.588;2023-05-11T10:42:21;94787.63;;;26.78;28.40
1926;BME280;964;42.606;23.588;2023-05-11T10:52:02;94784.06;;;27.30;28.24
1926;BME280;964;42.606;23.588;2023-05-11T10:54:43;94785.63;;;27.86;28.56
1926;BME280;964;42.606;23.588;2023-05-11T10:57:23;94773.06;;;28.06;27.75
1926;BME280;964;42.606;23.588;2023-05-11T11:00:30;94776.63;;;26.81;28.44
1926;BME280;964;42.606;23.588;2023-05-11T11:03:09;94765.22;;;27.54;27.46
1926;BME280;964;42.606;23.588;2023-05-11T11:05:36;94774.13;;;27.45;27.97
1926;BME280;964;42.606;23.588;2023-05-11T11:08:06;94757.78;;;28.18;26.88
1926;BME280;964;42.606;23.588;2023-05-11T11:10:35;94769.84;;;28.35;26.85
1926;BME280;964;42.606;23.588;2023-05-11T11:13:04;94741.03;;;30.33;25.49
1926;BME280;964;42.606;23.588;2023-05-11T11:16:11;94760.94;;;28.16;26.67
1926;BME280;964;42.606;23.588;2023-05-11T11:18:38;94771.41;;;28.09;27.10
1926;BME280;964;42.606;23.588;2023-05-11T11:21:05;94756.72;;;28.76;26.41
1926;BME280;964;42.606;23.588;2023-05-11T11:23:48;94755.59;;;29.15;26.11
1926;BME280;964;42.606;23.588;2023-05-11T11:26:17;94762.75;;;29.12;26.77
1926;BME280;964;42.606;23.588;2023-05-11T11:29:08;94755.53;;;29.72;26.12
1926;BME280;964;42.606;23.588;2023-05-11T11:31:35;94758.28;;;29.72;26.04
1926;BME280;964;42.606;23.588;2023-05-11T11:34:32;94755.53;;;29.00;25.94
1926;BME280;964;42.606;23.588;2023-05-11T11:37:06;94754.31;;;30.70;24.94
1926;BME280;964;42.606;23.588;2023-05-11T11:39:49;94760.16;;;29.80;25.56
1926;BME280;964;42.606;23.588;2023-05-11T11:42:31;94766.41;;;27.80;27.37
1926;BME280;964;42.606;23.588;2023-05-11T11:45:29;94768.03;;;28.32;27.46
1926;BME280;964;42.606;23.588;2023-05-11T11:48:07;94783.44;;;27.17;28.13
1926;BME280;964;42.606;23.588;2023-05-11T11:50:33;94755.94;;;28.75;26.83
1926;BME280;964;42.606;23.588;2023-05-11T11:53:00;94753.53;;;29.10;26.62
1926;BME280;964;42.606;23.588;2023-05-11T11:55:50;94759.75;;;28.78;26.87
1926;BME280;964;42.606;23.588;2023-05-11T12:01:37;94768.13;;;27.01;29.29
1926;BME280;964;42.606;23.588;2023-05-11T12:04:26;94771.41;;;28.09;27.61
1926;BME280;964;42.606;23.588;2023-05-11T12:06:57;94763.75;;;28.49;27.64
1926;BME280;964;42.606;23.588;2023-05-11T12:09:24;94769.44;;;27.64;28.92
1926;BME280;964;42.606;23.588;2023-05-11T12:11:54;94757.59;;;29.38;27.12
1926;BME280;964;42.606;23.588;2023-05-11T12:14:22;94753.53;;;28.26;27.46
1926;BME280;964;42.606;23.588;2023-05-11T12:16:59;94744.78;;;28.97;26.56
1926;BME280;964;42.606;23.588;2023-05-11T12:19:27;94735.75;;;30.44;26.35
1926;BME280;964;42.606;23.588;2023-05-11T12:21:55;94751.69;;;28.32;27.64
1926;BME280;964;42.606;23.588;2023-05-11T12:24:21;94754.41;;;27.14;28.59
1926;BME280;964;42.606;23.588;2023-05-11T12:26:48;94741.72;;;28.20;28.00
1926;BME280;964;42.606;23.588;2023-05-11T12:29:16;94719.09;;;29.75;26.47
1926;BME280;964;42.606;23.588;2023-05-11T12:31:44;94713.78;;;31.03;25.29
1926;BME280;964;42.606;23.588;2023-05-11T12:34:13;94713.03;;;30.09;26.10
1926;BME280;964;42.606;23.588;2023-05-11T12:36:40;94718.13;;;29.63;26.62
1926;BME280;964;42.606;23.588;2023-05-11T12:39:07;94719.69;;;28.84;27.04
1926;BME280;964;42.606;23.588;2023-05-11T12:41:34;94717.91;;;29.52;27.14
1926;BME280;964;42.606;23.588;2023-05-11T12:44:01;94718.44;;;28.94;27.43
1926;BME280;964;42.606;23.588;2023-05-11T12:46:29;94703.00;;;30.35;25.96
1926;BME280;964;42.606;23.588;2023-05-11T12:48:55;94695.19;;;30.57;26.09
1926;BME280;964;42.606;23.588;2023-05-11T12:51:42;94684.47;;;31.09;25.06
1926;BME280;964;42.606;23.588;2023-05-11T12:54:09;94677.78;;;29.43;26.55
1926;BME280;964;42.606;23.588;2023-05-11T12:56:44;94684.84;;;30.03;26.01
1926;BME280;964;42.606;23.588;2023-05-11T12:59:23;94668.97;;;29.78;26.93
1926;BME280;964;42.606;23.588;2023-05-11T13:01:51;94663.91;;;30.14;25.64
1926;BME280;964;42.606;23.588;2023-05-11T13:04:27;94667.13;;;29.07;26.68
1926;BME280;964;42.606;23.588;2023-05-11T13:06:54;94666.34;;;30.56;25.16
1926;BME280;964;42.606;23.588;2023-05-11T13:09:22;94661.28;;;30.05;26.37
1926;BME280;964;42.606;23.588;2023-05-11T13:12:05;94672.41;;;30.02;25.93
1926;BME280;964;42.606;23.588;2023-05-11T13:14:32;94669.88;;;29.45;26.05
1926;BME280;964;42.606;23.588;2023-05-11T13:17:00;94667.31;;;29.03;26.81
1926;BME280;964;42.606;23.588;2023-05-11T13:19:28;94677.69;;;29.14;27.35
1926;BME280;964;42.606;23.588;2023-05-11T13:21:56;94653.97;;;30.46;26.08
1926;BME280;964;42.606;23.588;2023-05-11T13:24:23;94646.97;;;29.96;25.75
1926;BME280;964;42.606;23.588;2023-05-11T13:26:50;94644.13;;;30.05;25.88
1926;BME280;964;42.606;23.588;2023-05-11T13:29:17;94655.25;;;29.87;25.74
1926;BME280;964;42.606;23.588;2023-05-11T13:31:45;94658.28;;;30.88;24.46
1926;BME280;964;42.606;23.588;2023-05-11T13:34:14;94653.91;;;29.29;26.57
1926;BME280;964;42.606;23.588;2023-05-11T13:36:41;94663.31;;;28.06;27.70
1926;BME280;964;42.606;23.588;2023-05-11T13:39:08;94664.09;;;29.05;27.12
1926;BME280;964;42.606;23.588;2023-05-11T13:41:34;94670.06;;;27.32;29.20
1926;BME280;964;42.606;23.588;2023-05-11T13:44:01;94660.34;;;27.76;28.16
1926;BME280;964;42.606;23.588;2023-05-11T13:46:28;94664.13;;;28.39;27.50